Time,TemperatureF,DewpointF,PressureIn,WindDirection,WindDirectionDegrees,WindSpeedMPH,WindSpeedGustMPH,Humidity,HourlyPrecipIn,Conditions,Clouds,dailyrainin,SolarRadiationWatts/m^2,SoftwareType,DateUTC
2013-01-04 00:01:00,25.6,24.1,30.32,West,263,0.0,0.0,94,0.00,,,0.00,0,Wunderground v.1.15,2013-01-04 05:01:00,
2013-01-04 00:02:00,25.5,24.0,30.32,West,263,0.0,0.0,94,0.00,,,0.00,0,Wunderground v.1.15,2013-01-04 05:02:00,
2013-01-04 00:03:00,25.3,23.8,30.32,West,263,0.0,0.0,94,0.00,,,0.00,0,Wunderground v.1.15,2013-01-04 05:03:00,
2013-01-04 00:09:00,25.6,24.1,30.32,West,263,0.0,0.0,94,0.00,,,0.00,0,Wunderground v.1.15,2013-01-04 05:09:00,
2013-01-04 00:12:00,26.0,24.8,30.31,West,263,0.0,0.0,95,0.00,,,0.00,0,Wunderground v.1.15,2013-01-04 05:12:00,
2013-01-04 00:17:00,26.2,25.0,30.31,West,263,0.0,0.0,95,0.00,,,0.00,0,Wunderground v.1.15,2013-01-04 05:17:00,
2013-01-04 00:23:00,26.2,25.0,30.31,West,263,0.0,0.0,95,0.00,,,0.00,0,Wunderground v.1.15,2013-01-04 05:23:00,
2013-01-04 00:29:00,26.1,24.9,30.31,West,263,0.0,0.0,95,0.00,,,0.00,0,Wunderground v.1.15,2013-01-04 05:29:00,
2013-01-04 00:35:00,25.7,24.5,30.31,West,263,0.0,0.0,95,0.00,,,0.00,0,Wunderground v.1.15,2013-01-04 05:35:00,
2013-01-04 00:41:00,25.6,24.1,30.31,West,263,0.0,0.0,94,0.00,,,0.00,0,Wunderground v.1.15,2013-01-04 05:41:00,
2013-01-04 00:46:00,25.3,23.8,30.31,West,263,0.0,0.0,94,0.00,,,0.00,0,Wunderground v.1.15,2013-01-04 05:46:00,
2013-01-04 00:52:00,25.2,23.7,30.31,West,263,0.0,0.0,94,0.00,,,0.00,0,Wunderground v.1.15,2013-01-04 05:52:00,
2013-01-04 00:58:00,25.2,24.0,30.31,West,263,0.0,0.0,95,0.00,,,0.00,0,Wunderground v.1.15,2013-01-04 05:58:00,
2013-01-04 01:04:00,25.6,24.4,30.30,West,263,0.0,0.0,95,0.00,,,0.00,0,Wunderground v.1.15,2013-01-04 06:04:00,
2013-01-04 01:10:00,24.9,23.4,30.31,West,263,0.0,0.0,94,0.00,,,0.00,0,Wunderground v.1.15,2013-01-04 06:10:00,
2013-01-04 01:15:00,24.8,23.3,30.30,West,263,0.0,0.0,94,0.00,,,0.00,0,Wunderground v.1.15,2013-01-04 06:15:00,
2013-01-04 01:21:00,25.0,23.5,30.30,West,263,0.0,0.0,94,0.00,,,0.00,0,Wunderground v.1.15,2013-01-04 06:21:00,
2013-01-04 01:27:00,24.8,23.3,30.30,West,263,0.0,0.0,94,0.00,,,0.00,0,Wunderground v.1.15,2013-01-04 06:27:00,
2013-01-04 01:33:00,24.5,23.0,30.31,West,263,0.0,0.0,94,0.00,,,0.00,0,Wunderground v.1.15,2013-01-04 06:33:00,
2013-01-04 01:39:00,24.2,22.7,30.31,West,263,0.0,0.0,94,0.00,,,0.00,0,Wunderground v.1.15,2013-01-04 06:39:00,
2013-01-04 01:45:00,24.5,23.3,30.31,West,263,0.0,0.0,95,0.00,,,0.00,0,Wunderground v.1.15,2013-01-04 06:45:00,
2013-01-04 01:50:00,24.9,23.7,30.31,West,263,0.0,0.0,95,0.00,,,0.00,0,Wunderground v.1.15,2013-01-04 06:50:00,
2013-01-04 01:56:00,25.1,23.9,30.31,West,263,0.0,0.0,95,0.00,,,0.00,0,Wunderground v.1.15,2013-01-04 06:56:00,
2013-01-04 02:01:00,24.3,22.8,30.31,West,263,0.0,0.0,94,0.00,,,0.00,0,Wunderground v.1.15,2013-01-04 07:01:00,
2013-01-04 02:06:00,24.0,22.5,30.31,West,263,0.0,1.0,94,0.00,,,0.00,0,Wunderground v.1.15,2013-01-04 07:06:00,
2013-01-04 02:11:00,24.6,23.4,30.32,West,263,0.0,0.0,95,0.00,,,0.00,0,Wunderground v.1.15,2013-01-04 07:11:00,
2013-01-04 02:16:00,24.8,23.6,30.32,West,263,0.0,0.0,95,0.00,,,0.00,0,Wunderground v.1.15,2013-01-04 07:16:00,
2013-01-04 02:21:00,24.4,22.9,30.32,West,263,0.0,0.0,94,0.00,,,0.00,0,Wunderground v.1.15,2013-01-04 07:21:00,
2013-01-04 02:26:00,24.3,22.8,30.32,West,263,0.0,1.0,94,0.00,,,0.00,0,Wunderground v.1.15,2013-01-04 07:26:00,
2013-01-04 02:31:00,24.2,22.7,30.32,West,263,0.0,0.0,94,0.00,,,0.00,0,Wunderground v.1.15,2013-01-04 07:31:00,
2013-01-04 02:36:00,24.1,22.6,30.32,West,263,0.0,0.0,94,0.00,,,0.00,0,Wunderground v.1.15,2013-01-04 07:36:00,
2013-01-04 02:41:00,24.7,23.5,30.33,West,263,0.0,0.0,95,0.00,,,0.00,0,Wunderground v.1.15,2013-01-04 07:41:00,
2013-01-04 02:46:00,25.1,23.9,30.33,West,263,0.0,0.0,95,0.00,,,0.00,0,Wunderground v.1.15,2013-01-04 07:46:00,
2013-01-04 02:51:00,25.4,24.2,30.33,West,263,0.0,1.0,95,0.00,,,0.00,0,Wunderground v.1.15,2013-01-04 07:51:00,
2013-01-04 02:56:00,24.8,23.3,30.33,West,262,0.0,1.0,94,0.00,,,0.00,0,Wunderground v.1.15,2013-01-04 07:56:00,
2013-01-04 03:01:00,25.2,24.0,30.33,West,262,0.0,0.0,95,0.00,,,0.00,0,Wunderground v.1.15,2013-01-04 08:01:00,
2013-01-04 03:06:00,26.1,24.9,30.33,West,262,0.0,0.0,95,0.00,,,0.00,0,Wunderground v.1.15,2013-01-04 08:06:00,
2013-01-04 03:11:00,26.2,25.0,30.33,West,262,0.0,0.0,95,0.00,,,0.00,0,Wunderground v.1.15,2013-01-04 08:11:00,
2013-01-04 03:16:00,26.2,24.7,30.33,West,262,0.0,1.0,94,0.00,,,0.00,0,Wunderground v.1.15,2013-01-04 08:16:00,
2013-01-04 03:21:00,26.2,24.7,30.33,WSW,244,0.0,1.0,94,0.00,,,0.00,0,Wunderground v.1.15,2013-01-04 08:21:00,
2013-01-04 03:26:00,25.6,23.9,30.33,WSW,238,1.0,2.0,93,0.00,,,0.00,0,Wunderground v.1.15,2013-01-04 08:26:00,
2013-01-04 03:31:00,25.0,23.3,30.33,WSW,237,0.0,1.0,93,0.00,,,0.00,0,Wunderground v.1.15,2013-01-04 08:31:00,
2013-01-04 03:36:00,24.6,22.9,30.33,WSW,237,0.0,1.0,93,0.00,,,0.00,0,Wunderground v.1.15,2013-01-04 08:36:00,
2013-01-04 03:41:00,23.9,22.2,30.33,WSW,244,0.0,0.0,93,0.00,,,0.00,0,Wunderground v.1.15,2013-01-04 08:41:00,
2013-01-04 03:46:00,24.6,23.1,30.33,WSW,244,0.0,0.0,94,0.00,,,0.00,0,Wunderground v.1.15,2013-01-04 08:46:00,
2013-01-04 03:51:00,25.5,24.0,30.33,WSW,244,0.0,0.0,94,0.00,,,0.00,0,Wunderground v.1.15,2013-01-04 08:51:00,
2013-01-04 03:56:00,25.5,24.0,30.33,WSW,244,0.0,0.0,94,0.00,,,0.00,0,Wunderground v.1.15,2013-01-04 08:56:00,
2013-01-04 04:01:00,25.2,23.5,30.33,WSW,244,0.0,0.0,93,0.00,,,0.00,0,Wunderground v.1.15,2013-01-04 09:01:00,
2013-01-04 04:06:00,25.4,23.7,30.32,West,281,0.0,1.0,93,0.00,,,0.00,0,Wunderground v.1.15,2013-01-04 09:06:00,
2013-01-04 04:11:00,25.2,23.5,30.32,West,281,0.0,0.0,93,0.00,,,0.00,0,Wunderground v.1.15,2013-01-04 09:11:00,
2013-01-04 04:16:00,25.0,23.3,30.32,West,281,0.0,1.0,93,0.00,,,0.00,0,Wunderground v.1.15,2013-01-04 09:16:00,
2013-01-04 04:21:00,24.0,22.0,30.32,West,281,0.0,0.0,92,0.00,,,0.00,0,Wunderground v.1.15,2013-01-04 09:21:00,
2013-01-04 04:26:00,24.0,22.5,30.32,West,281,0.0,0.0,94,0.00,,,0.00,0,Wunderground v.1.15,2013-01-04 09:26:00,
2013-01-04 04:31:00,24.1,22.6,30.32,West,281,0.0,0.0,94,0.00,,,0.00,0,Wunderground v.1.15,2013-01-04 09:31:00,
2013-01-04 04:36:00,23.8,22.3,30.32,West,281,0.0,0.0,94,0.00,,,0.00,0,Wunderground v.1.15,2013-01-04 09:36:00,
2013-01-04 04:41:00,23.6,22.1,30.32,West,281,0.0,0.0,94,0.00,,,0.00,0,Wunderground v.1.15,2013-01-04 09:41:00,
2013-01-04 04:46:00,23.7,22.2,30.32,West,281,0.0,1.0,94,0.00,,,0.00,0,Wunderground v.1.15,2013-01-04 09:46:00,
2013-01-04 04:51:00,23.6,22.1,30.32,West,281,0.0,0.0,94,0.00,,,0.00,0,Wunderground v.1.15,2013-01-04 09:51:00,
2013-01-04 04:56:00,23.1,21.4,30.32,West,267,0.0,1.0,93,0.00,,,0.00,0,Wunderground v.1.15,2013-01-04 09:56:00,
2013-01-04 05:02:00,23.1,21.4,30.32,West,265,0.0,0.0,93,0.00,,,0.00,0,Wunderground v.1.15,2013-01-04 10:02:00,
2013-01-04 05:07:00,23.8,22.3,30.32,West,265,0.0,0.0,94,0.00,,,0.00,0,Wunderground v.1.15,2013-01-04 10:07:00,
2013-01-04 05:12:00,24.2,22.7,30.33,West,265,0.0,0.0,94,0.00,,,0.00,0,Wunderground v.1.15,2013-01-04 10:12:00,
2013-01-04 05:17:00,25.2,23.5,30.32,West,265,0.0,0.0,93,0.00,,,0.00,0,Wunderground v.1.15,2013-01-04 10:17:00,
2013-01-04 05:22:00,24.8,23.1,30.33,West,265,0.0,0.0,93,0.00,,,0.00,0,Wunderground v.1.15,2013-01-04 10:22:00,
2013-01-04 05:27:00,24.7,22.7,30.33,West,265,0.0,1.0,92,0.00,,,0.00,0,Wunderground v.1.15,2013-01-04 10:27:00,
2013-01-04 05:32:00,24.8,23.1,30.33,West,265,0.0,0.0,93,0.00,,,0.00,0,Wunderground v.1.15,2013-01-04 10:32:00,
2013-01-04 05:37:00,24.3,22.3,30.33,West,265,0.0,1.0,92,0.00,,,0.00,0,Wunderground v.1.15,2013-01-04 10:37:00,
2013-01-04 05:42:00,24.2,22.2,30.33,West,262,0.0,0.0,92,0.00,,,0.00,0,Wunderground v.1.15,2013-01-04 10:42:00,
2013-01-04 05:47:00,24.0,22.3,30.33,West,262,0.0,1.0,93,0.00,,,0.00,0,Wunderground v.1.15,2013-01-04 10:47:00,
2013-01-04 05:52:00,23.4,21.4,30.33,West,262,0.0,0.0,92,0.00,,,0.00,0,Wunderground v.1.15,2013-01-04 10:52:00,
2013-01-04 05:57:00,23.8,22.1,30.33,West,262,0.0,0.0,93,0.00,,,0.00,0,Wunderground v.1.15,2013-01-04 10:57:00,
2013-01-04 06:02:00,24.8,23.1,30.33,West,262,0.0,0.0,93,0.00,,,0.00,0,Wunderground v.1.15,2013-01-04 11:02:00,
2013-01-04 06:07:00,25.4,23.4,30.33,West,262,0.0,0.0,92,0.00,,,0.00,0,Wunderground v.1.15,2013-01-04 11:07:00,
2013-01-04 06:12:00,24.5,22.0,30.33,SW,236,0.0,4.0,90,0.00,,,0.00,0,Wunderground v.1.15,2013-01-04 11:12:00,
2013-01-04 06:17:00,23.3,21.1,30.33,SW,236,0.0,4.0,91,0.00,,,0.00,0,Wunderground v.1.15,2013-01-04 11:17:00,
2013-01-04 06:22:00,23.8,22.1,30.33,WSW,239,0.0,0.0,93,0.00,,,0.00,0,Wunderground v.1.15,2013-01-04 11:22:00,
2013-01-04 06:27:00,26.3,24.3,30.33,WSW,241,0.0,2.0,92,0.00,,,0.00,0,Wunderground v.1.15,2013-01-04 11:27:00,
2013-01-04 06:32:00,26.6,24.1,30.33,WSW,242,0.0,1.0,90,0.00,,,0.00,0,Wunderground v.1.15,2013-01-04 11:32:00,
2013-01-04 06:37:00,26.1,23.3,30.33,WSW,242,0.0,1.0,89,0.00,,,0.00,0,Wunderground v.1.15,2013-01-04 11:37:00,
2013-01-04 06:42:00,25.5,23.0,30.34,WSW,242,0.0,0.0,90,0.00,,,0.00,0,Wunderground v.1.15,2013-01-04 11:42:00,
2013-01-04 06:47:00,25.7,23.4,30.34,WSW,242,0.0,0.0,91,0.00,,,0.00,0,Wunderground v.1.15,2013-01-04 11:47:00,
2013-01-04 06:52:00,25.2,22.7,30.34,WSW,242,0.0,1.0,90,0.00,,,0.00,0,Wunderground v.1.15,2013-01-04 11:52:00,
2013-01-04 06:57:00,24.3,21.8,30.34,WSW,242,0.0,1.0,90,0.00,,,0.00,0,Wunderground v.1.15,2013-01-04 11:57:00,
2013-01-04 07:02:00,24.5,22.2,30.34,WSW,243,1.0,2.0,91,0.00,,,0.00,0,Wunderground v.1.15,2013-01-04 12:02:00,
2013-01-04 07:07:00,25.8,23.5,30.34,West,275,0.0,3.0,91,0.00,,,0.00,0,Wunderground v.1.15,2013-01-04 12:07:00,
2013-01-04 07:12:00,26.9,24.1,30.33,WNW,300,1.0,6.0,89,0.00,,,0.00,0,Wunderground v.1.15,2013-01-04 12:12:00,
2013-01-04 07:17:00,27.0,23.9,30.34,WNW,286,2.0,6.0,88,0.00,,,0.00,0,Wunderground v.1.15,2013-01-04 12:17:00,
2013-01-04 07:22:00,27.3,24.2,30.34,West,259,1.0,2.0,88,0.00,,,0.00,0,Wunderground v.1.15,2013-01-04 12:22:00,
2013-01-04 07:27:00,27.8,24.7,30.34,WSW,246,0.0,4.0,88,0.00,,,0.00,5,Wunderground v.1.15,2013-01-04 12:27:00,
2013-01-04 07:32:00,27.9,24.5,30.34,WNW,286,2.0,2.0,87,0.00,,,0.00,9,Wunderground v.1.15,2013-01-04 12:32:00,
2013-01-04 07:37:00,28.0,24.6,30.34,West,269,0.0,3.0,87,0.00,,,0.00,11,Wunderground v.1.15,2013-01-04 12:37:00,
2013-01-04 07:42:00,28.3,24.6,30.34,West,269,0.0,1.0,86,0.00,,,0.00,12,Wunderground v.1.15,2013-01-04 12:42:00,
2013-01-04 07:47:00,28.5,24.6,30.34,West,268,0.0,2.0,85,0.00,,,0.00,23,Wunderground v.1.15,2013-01-04 12:47:00,
2013-01-04 07:52:00,28.5,24.8,30.35,West,271,0.0,1.0,86,0.00,,,0.00,33,Wunderground v.1.15,2013-01-04 12:52:00,
2013-01-04 07:57:00,28.4,25.0,30.35,West,271,0.0,1.0,87,0.00,,,0.00,42,Wunderground v.1.15,2013-01-04 12:57:00,
2013-01-04 08:03:00,28.4,25.3,30.35,West,271,0.0,0.0,88,0.00,,,0.00,49,Wunderground v.1.15,2013-01-04 13:03:00,
2013-01-04 08:08:00,28.1,25.3,30.35,WSW,247,0.0,1.0,89,0.00,,,0.00,60,Wunderground v.1.15,2013-01-04 13:08:00,
2013-01-04 08:13:00,28.7,25.6,30.35,WSW,252,0.0,1.0,88,0.00,,,0.00,76,Wunderground v.1.15,2013-01-04 13:13:00,
2013-01-04 08:18:00,29.3,26.2,30.35,WSW,252,0.0,1.0,88,0.00,,,0.00,105,Wunderground v.1.15,2013-01-04 13:18:00,
2013-01-04 08:23:00,30.0,26.6,30.35,WSW,238,2.0,2.0,87,0.00,,,0.00,144,Wunderground v.1.15,2013-01-04 13:23:00,
2013-01-04 08:28:00,29.9,26.5,30.34,WSW,248,0.0,2.0,87,0.00,,,0.00,160,Wunderground v.1.15,2013-01-04 13:28:00,
2013-01-04 08:33:00,29.9,26.5,30.34,WSW,257,0.0,4.0,87,0.00,,,0.00,174,Wunderground v.1.15,2013-01-04 13:33:00,
2013-01-04 08:38:00,30.7,26.4,30.34,West,267,2.0,4.0,84,0.00,,,0.00,190,Wunderground v.1.15,2013-01-04 13:38:00,
2013-01-04 08:43:00,31.2,26.6,30.34,WNW,301,2.0,4.0,83,0.00,,,0.00,202,Wunderground v.1.15,2013-01-04 13:43:00,
2013-01-04 08:48:00,31.4,26.5,30.35,WNW,287,0.0,7.0,82,0.00,,,0.00,218,Wunderground v.1.15,2013-01-04 13:48:00,
2013-01-04 08:53:00,32.0,26.5,30.35,WNW,300,4.0,5.0,80,0.00,,,0.00,232,Wunderground v.1.15,2013-01-04 13:53:00,
2013-01-04 08:58:00,32.3,26.8,30.35,NW,307,2.0,5.0,80,0.00,,,0.00,244,Wunderground v.1.15,2013-01-04 13:58:00,
2013-01-04 09:03:00,32.6,27.1,30.35,NW,308,1.0,3.0,80,0.00,,,0.00,260,Wunderground v.1.15,2013-01-04 14:03:00,
2013-01-04 09:08:00,32.9,27.4,30.35,WSW,248,1.0,8.0,80,0.00,,,0.00,279,Wunderground v.1.15,2013-01-04 14:08:00,
2013-01-04 09:13:00,33.4,27.3,30.35,NW,325,3.0,4.0,78,0.00,,,0.00,304,Wunderground v.1.15,2013-01-04 14:13:00,
2013-01-04 09:18:00,33.8,27.0,30.35,West,274,2.0,5.0,76,0.00,,,0.00,323,Wunderground v.1.15,2013-01-04 14:18:00,
2013-01-04 09:23:00,34.1,27.3,30.36,West,272,3.0,6.0,76,0.00,,,0.00,345,Wunderground v.1.15,2013-01-04 14:23:00,
2013-01-04 09:28:00,34.4,27.9,30.36,WSW,250,1.0,11.0,77,0.00,,,0.00,359,Wunderground v.1.15,2013-01-04 14:28:00,
2013-01-04 09:33:00,34.9,27.5,30.36,SSW,196,2.0,6.0,74,0.00,,,0.00,371,Wunderground v.1.15,2013-01-04 14:33:00,
2013-01-04 09:38:00,35.2,27.1,30.36,West,279,1.0,6.0,72,0.00,,,0.00,380,Wunderground v.1.15,2013-01-04 14:38:00,
2013-01-04 09:43:00,35.8,27.3,30.36,NW,319,2.0,7.0,71,0.00,,,0.00,387,Wunderground v.1.15,2013-01-04 14:43:00,
2013-01-04 09:48:00,35.9,27.4,30.36,West,281,11.0,11.0,71,0.00,,,0.00,397,Wunderground v.1.15,2013-01-04 14:48:00,
2013-01-04 09:53:00,36.3,27.1,30.37,SW,227,4.0,7.0,69,0.00,,,0.00,406,Wunderground v.1.15,2013-01-04 14:53:00,
2013-01-04 09:58:00,36.5,26.2,30.37,WNW,302,9.0,10.0,66,0.00,,,0.00,376,Wunderground v.1.15,2013-01-04 14:58:00,
2013-01-04 10:03:00,37.0,26.7,30.37,NW,309,1.0,6.0,66,0.00,,,0.00,381,Wunderground v.1.15,2013-01-04 15:03:00,
2013-01-04 10:08:00,37.3,26.2,30.37,WSW,253,4.0,8.0,64,0.00,,,0.00,390,Wunderground v.1.15,2013-01-04 15:08:00,
2013-01-04 10:13:00,37.4,25.9,30.37,SW,225,4.0,11.0,63,0.00,,,0.00,399,Wunderground v.1.15,2013-01-04 15:13:00,
2013-01-04 10:18:00,37.7,25.8,30.37,West,267,4.0,11.0,62,0.00,,,0.00,406,Wunderground v.1.15,2013-01-04 15:18:00,
2013-01-04 10:23:00,38.3,26.4,30.37,West,261,2.0,5.0,62,0.00,,,0.00,415,Wunderground v.1.15,2013-01-04 15:23:00,
2013-01-04 10:28:00,38.2,26.3,30.37,SW,232,3.0,11.0,62,0.00,,,0.00,424,Wunderground v.1.15,2013-01-04 15:28:00,
2013-01-04 10:33:00,38.3,25.2,30.38,NW,313,0.0,9.0,59,0.00,,,0.00,434,Wunderground v.1.15,2013-01-04 15:33:00,
2013-01-04 10:38:00,38.5,25.0,30.38,WSW,249,2.0,9.0,58,0.00,,,0.00,443,Wunderground v.1.15,2013-01-04 15:38:00,
2013-01-04 10:43:00,38.8,25.3,30.37,NW,315,3.0,9.0,58,0.00,,,0.00,454,Wunderground v.1.15,2013-01-04 15:43:00,
2013-01-04 10:48:00,38.7,24.8,30.37,NNE,18,2.0,10.0,57,0.00,,,0.00,462,Wunderground v.1.15,2013-01-04 15:48:00,
2013-01-04 10:53:00,39.0,25.0,30.36,WNW,293,5.0,12.0,57,0.00,,,0.00,475,Wunderground v.1.15,2013-01-04 15:53:00,
2013-01-04 10:58:00,39.5,25.1,30.37,WSW,250,9.0,13.0,56,0.00,,,0.00,485,Wunderground v.1.15,2013-01-04 15:58:00,
2013-01-04 11:04:00,39.6,25.6,30.37,West,259,1.0,9.0,57,0.00,,,0.00,496,Wunderground v.1.15,2013-01-04 16:04:00,
2013-01-04 11:09:00,40.0,25.6,30.37,NW,309,9.0,10.0,56,0.00,,,0.00,501,Wunderground v.1.15,2013-01-04 16:09:00,
2013-01-04 11:14:00,39.7,25.3,30.36,WNW,300,2.0,12.0,56,0.00,,,0.00,510,Wunderground v.1.15,2013-01-04 16:14:00,
2013-01-04 11:19:00,39.9,25.0,30.36,West,279,6.0,12.0,55,0.00,,,0.00,515,Wunderground v.1.15,2013-01-04 16:19:00,
2013-01-04 11:24:00,41.0,26.9,30.36,SW,223,4.0,7.0,57,0.00,,,0.00,520,Wunderground v.1.15,2013-01-04 16:24:00,
2013-01-04 11:29:00,41.2,25.8,30.36,WSW,256,1.0,7.0,54,0.00,,,0.00,527,Wunderground v.1.15,2013-01-04 16:29:00,
2013-01-04 11:34:00,40.9,26.0,30.35,West,263,4.0,11.0,55,0.00,,,0.00,529,Wunderground v.1.15,2013-01-04 16:34:00,
2013-01-04 11:39:00,40.8,25.9,30.35,South,188,5.0,13.0,55,0.00,,,0.00,531,Wunderground v.1.15,2013-01-04 16:39:00,
2013-01-04 11:44:00,40.8,25.4,30.35,WSW,257,7.0,9.0,54,0.00,,,0.00,531,Wunderground v.1.15,2013-01-04 16:44:00,
2013-01-04 11:49:00,40.9,25.5,30.34,WNW,298,4.0,9.0,54,0.00,,,0.00,534,Wunderground v.1.15,2013-01-04 16:49:00,
2013-01-04 11:54:00,41.1,25.7,30.34,NW,323,5.0,11.0,54,0.00,,,0.00,531,Wunderground v.1.15,2013-01-04 16:54:00,
2013-01-04 11:59:00,41.6,26.2,30.34,West,272,3.0,11.0,54,0.00,,,0.00,529,Wunderground v.1.15,2013-01-04 16:59:00,
2013-01-04 12:04:00,41.6,26.2,30.34,SW,234,5.0,13.0,54,0.00,,,0.00,531,Wunderground v.1.15,2013-01-04 17:04:00,
2013-01-04 12:09:00,41.6,25.3,30.33,West,265,6.0,13.0,52,0.00,,,0.00,531,Wunderground v.1.15,2013-01-04 17:09:00,
2013-01-04 12:14:00,42.3,26.4,30.32,NW,309,3.0,7.0,53,0.00,,,0.00,531,Wunderground v.1.15,2013-01-04 17:14:00,
2013-01-04 12:19:00,42.3,25.9,30.31,WNW,300,3.0,10.0,52,0.00,,,0.00,526,Wunderground v.1.15,2013-01-04 17:19:00,
2013-01-04 12:24:00,42.4,26.9,30.32,NW,311,3.0,8.0,54,0.00,,,0.00,524,Wunderground v.1.15,2013-01-04 17:24:00,
2013-01-04 12:29:00,42.7,26.3,30.31,SSW,205,2.0,8.0,52,0.00,,,0.00,524,Wunderground v.1.15,2013-01-04 17:29:00,
2013-01-04 12:34:00,42.6,26.2,30.31,WNW,289,2.0,8.0,52,0.00,,,0.00,522,Wunderground v.1.15,2013-01-04 17:34:00,
2013-01-04 12:40:00,42.7,26.3,30.31,SW,229,7.0,7.0,52,0.00,,,0.00,517,Wunderground v.1.15,2013-01-04 17:40:00,
2013-01-04 12:45:00,42.8,25.9,30.30,West,259,0.0,9.0,51,0.00,,,0.00,512,Wunderground v.1.15,2013-01-04 17:45:00,
2013-01-04 12:50:00,43.5,26.6,30.30,NNW,337,4.0,4.0,51,0.00,,,0.00,510,Wunderground v.1.15,2013-01-04 17:50:00,
2013-01-04 12:55:00,43.7,27.7,30.29,WSW,256,2.0,7.0,53,0.00,,,0.00,506,Wunderground v.1.15,2013-01-04 17:55:00,
2013-01-04 13:00:00,43.5,26.1,30.29,West,273,5.0,5.0,50,0.00,,,0.00,499,Wunderground v.1.15,2013-01-04 18:00:00,
2013-01-04 13:05:00,43.0,26.1,30.29,NW,317,3.0,11.0,51,0.00,,,0.00,494,Wunderground v.1.15,2013-01-04 18:05:00,
2013-01-04 13:10:00,43.5,27.0,30.28,NW,325,3.0,5.0,52,0.00,,,0.00,487,Wunderground v.1.15,2013-01-04 18:10:00,
2013-01-04 13:15:00,43.7,26.7,30.28,NNW,339,1.0,5.0,51,0.00,,,0.00,482,Wunderground v.1.15,2013-01-04 18:15:00,
2013-01-04 13:20:00,43.8,26.3,30.28,West,279,1.0,3.0,50,0.00,,,0.00,478,Wunderground v.1.15,2013-01-04 18:20:00,
2013-01-04 13:25:00,43.6,25.7,30.28,NNW,334,5.0,10.0,49,0.00,,,0.00,471,Wunderground v.1.15,2013-01-04 18:25:00,
2013-01-04 13:30:00,43.9,26.4,30.27,SW,219,6.0,6.0,50,0.00,,,0.00,464,Wunderground v.1.15,2013-01-04 18:30:00,
2013-01-04 13:35:00,44.5,26.5,30.27,West,274,7.0,9.0,49,0.00,,,0.00,455,Wunderground v.1.15,2013-01-04 18:35:00,
2013-01-04 13:40:00,44.6,26.6,30.26,SW,216,12.0,12.0,49,0.00,,,0.00,446,Wunderground v.1.15,2013-01-04 18:40:00,
2013-01-04 13:45:00,44.2,26.2,30.27,WNW,298,5.0,12.0,49,0.00,,,0.00,439,Wunderground v.1.15,2013-01-04 18:45:00,
2013-01-04 13:50:00,44.3,25.8,30.27,WSW,242,2.0,5.0,48,0.00,,,0.00,431,Wunderground v.1.15,2013-01-04 18:50:00,
2013-01-04 13:55:00,45.4,27.3,30.26,NW,306,6.0,9.0,49,0.00,,,0.00,424,Wunderground v.1.15,2013-01-04 18:55:00,
2013-01-04 14:00:00,45.0,26.0,30.26,SW,232,2.0,4.0,47,0.00,,,0.00,413,Wunderground v.1.15,2013-01-04 19:00:00,
2013-01-04 14:05:00,45.8,28.2,30.26,South,187,8.0,8.0,50,0.00,,,0.00,404,Wunderground v.1.15,2013-01-04 19:05:00,
2013-01-04 14:10:00,45.4,25.8,30.26,West,263,3.0,4.0,46,0.00,,,0.00,394,Wunderground v.1.15,2013-01-04 19:10:00,
2013-01-04 14:15:00,45.6,26.0,30.26,WSW,253,4.0,10.0,46,0.00,,,0.00,385,Wunderground v.1.15,2013-01-04 19:15:00,
2013-01-04 14:20:00,45.6,26.5,30.26,West,267,5.0,7.0,47,0.00,,,0.00,376,Wunderground v.1.15,2013-01-04 19:20:00,
2013-01-04 14:25:00,46.0,26.4,30.26,West,268,5.0,13.0,46,0.00,,,0.00,362,Wunderground v.1.15,2013-01-04 19:25:00,
2013-01-04 14:30:00,46.0,26.9,30.26,WSW,256,3.0,11.0,47,0.00,,,0.00,352,Wunderground v.1.15,2013-01-04 19:30:00,
2013-01-04 14:35:00,45.9,26.3,30.26,West,271,3.0,11.0,46,0.00,,,0.00,341,Wunderground v.1.15,2013-01-04 19:35:00,
2013-01-04 14:40:00,46.2,27.1,30.26,WNW,286,3.0,5.0,47,0.00,,,0.00,330,Wunderground v.1.15,2013-01-04 19:40:00,
2013-01-04 14:45:00,45.8,26.2,30.26,West,259,4.0,10.0,46,0.00,,,0.00,318,Wunderground v.1.15,2013-01-04 19:45:00,
2013-01-04 14:51:00,46.1,26.4,30.26,NE,47,1.0,4.0,46,0.00,,,0.00,306,Wunderground v.1.15,2013-01-04 19:51:00,
2013-01-04 14:56:00,46.1,25.9,30.26,WNW,296,4.0,11.0,45,0.00,,,0.00,294,Wunderground v.1.15,2013-01-04 19:56:00,
2013-01-04 15:01:00,46.3,26.1,30.26,WNW,288,5.0,8.0,45,0.00,,,0.00,279,Wunderground v.1.15,2013-01-04 20:01:00,
2013-01-04 15:06:00,46.3,25.6,30.27,SW,221,4.0,9.0,44,0.00,,,0.00,264,Wunderground v.1.15,2013-01-04 20:06:00,
2013-01-04 15:11:00,46.3,26.1,30.27,NW,309,0.0,6.0,45,0.00,,,0.00,246,Wunderground v.1.15,2013-01-04 20:11:00,
2013-01-04 15:16:00,46.4,26.2,30.27,WSW,237,5.0,10.0,45,0.00,,,0.00,230,Wunderground v.1.15,2013-01-04 20:16:00,
2013-01-04 15:21:00,46.8,25.5,30.26,NW,313,1.0,9.0,43,0.00,,,0.00,211,Wunderground v.1.15,2013-01-04 20:21:00,
2013-01-04 15:26:00,46.6,25.8,30.26,West,263,7.0,9.0,44,0.00,,,0.00,197,Wunderground v.1.15,2013-01-04 20:26:00,
2013-01-04 15:31:00,46.4,25.6,30.26,NNW,347,1.0,4.0,44,0.00,,,0.00,179,Wunderground v.1.15,2013-01-04 20:31:00,
2013-01-04 15:36:00,46.7,25.4,30.26,SW,233,0.0,7.0,43,0.00,,,0.00,162,Wunderground v.1.15,2013-01-04 20:36:00,
2013-01-04 15:41:00,46.7,25.9,30.26,SW,232,2.0,3.0,44,0.00,,,0.00,144,Wunderground v.1.15,2013-01-04 20:41:00,
2013-01-04 15:46:00,46.6,24.7,30.25,WNW,302,2.0,10.0,42,0.00,,,0.00,128,Wunderground v.1.15,2013-01-04 20:46:00,
2013-01-04 15:51:00,46.7,25.9,30.25,WSW,242,2.0,3.0,44,0.00,,,0.00,111,Wunderground v.1.15,2013-01-04 20:51:00,
2013-01-04 15:56:00,46.8,26.0,30.26,NW,324,2.0,8.0,44,0.00,,,0.00,98,Wunderground v.1.15,2013-01-04 20:56:00,
2013-01-04 16:01:00,46.7,24.8,30.25,SW,227,5.0,6.0,42,0.00,,,0.00,84,Wunderground v.1.15,2013-01-04 21:01:00,
2013-01-04 16:06:00,46.7,24.8,30.26,SSW,211,2.0,7.0,42,0.00,,,0.00,77,Wunderground v.1.15,2013-01-04 21:06:00,
2013-01-04 16:11:00,46.8,24.9,30.26,West,268,1.0,6.0,42,0.00,,,0.00,65,Wunderground v.1.15,2013-01-04 21:11:00,
2013-01-04 16:16:00,46.7,24.2,30.26,WSW,257,6.0,9.0,41,0.00,,,0.00,54,Wunderground v.1.15,2013-01-04 21:16:00,
2013-01-04 16:21:00,46.4,24.5,30.26,West,273,2.0,3.0,42,0.00,,,0.00,49,Wunderground v.1.15,2013-01-04 21:21:00,
2013-01-04 16:26:00,45.9,24.6,30.26,WSW,242,1.0,4.0,43,0.00,,,0.00,51,Wunderground v.1.15,2013-01-04 21:26:00,
2013-01-04 16:31:00,45.6,24.9,30.26,WSW,246,1.0,2.0,44,0.00,,,0.00,42,Wunderground v.1.15,2013-01-04 21:31:00,
2013-01-04 16:36:00,45.5,24.3,30.26,WSW,252,7.0,8.0,43,0.00,,,0.00,32,Wunderground v.1.15,2013-01-04 21:36:00,
2013-01-04 16:41:00,45.4,24.7,30.26,WSW,245,1.0,4.0,44,0.00,,,0.00,25,Wunderground v.1.15,2013-01-04 21:41:00,
2013-01-04 16:46:00,45.3,24.6,30.26,WSW,254,0.0,5.0,44,0.00,,,0.00,21,Wunderground v.1.15,2013-01-04 21:46:00,
2013-01-04 16:51:00,45.1,24.5,30.26,WSW,246,1.0,2.0,44,0.00,,,0.00,16,Wunderground v.1.15,2013-01-04 21:51:00,
2013-01-04 16:56:00,44.9,24.8,30.26,West,270,0.0,4.0,45,0.00,,,0.00,11,Wunderground v.1.15,2013-01-04 21:56:00,
2013-01-04 17:02:00,44.7,25.7,30.27,WSW,246,4.0,4.0,47,0.00,,,0.00,5,Wunderground v.1.15,2013-01-04 22:02:00,
2013-01-04 17:07:00,44.5,25.5,30.26,WSW,242,1.0,4.0,47,0.00,,,0.00,0,Wunderground v.1.15,2013-01-04 22:07:00,
2013-01-04 17:12:00,44.3,25.3,30.26,West,268,1.0,3.0,47,0.00,,,0.00,0,Wunderground v.1.15,2013-01-04 22:12:00,
2013-01-04 17:17:00,44.2,25.2,30.26,WNW,302,0.0,3.0,47,0.00,,,0.00,0,Wunderground v.1.15,2013-01-04 22:17:00,
2013-01-04 17:22:00,44.1,24.6,30.26,NW,308,2.0,3.0,46,0.00,,,0.00,0,Wunderground v.1.15,2013-01-04 22:22:00,
2013-01-04 17:27:00,44.1,24.6,30.26,NW,307,1.0,3.0,46,0.00,,,0.00,0,Wunderground v.1.15,2013-01-04 22:27:00,
2013-01-04 17:32:00,44.0,24.5,30.26,NNW,332,1.0,1.0,46,0.00,,,0.00,0,Wunderground v.1.15,2013-01-04 22:32:00,
2013-01-04 17:37:00,43.9,24.4,30.26,West,266,1.0,3.0,46,0.00,,,0.00,0,Wunderground v.1.15,2013-01-04 22:37:00,
2013-01-04 17:42:00,43.7,24.2,30.27,NW,306,0.0,1.0,46,0.00,,,0.00,0,Wunderground v.1.15,2013-01-04 22:42:00,
2013-01-04 17:47:00,43.7,24.2,30.27,WSW,245,3.0,3.0,46,0.00,,,0.00,0,Wunderground v.1.15,2013-01-04 22:47:00,
2013-01-04 17:52:00,43.9,24.4,30.27,WSW,244,2.0,3.0,46,0.00,,,0.00,0,Wunderground v.1.15,2013-01-04 22:52:00,
2013-01-04 17:57:00,43.6,24.7,30.26,WSW,250,0.0,4.0,47,0.00,,,0.00,0,Wunderground v.1.15,2013-01-04 22:57:00,
2013-01-04 18:02:00,43.5,25.1,30.27,NW,312,0.0,4.0,48,0.00,,,0.00,0,Wunderground v.1.15,2013-01-04 23:02:00,
2013-01-04 18:07:00,43.5,23.5,30.27,WNW,292,2.0,7.0,45,0.00,,,0.00,0,Wunderground v.1.15,2013-01-04 23:07:00,
2013-01-04 18:12:00,43.7,23.7,30.28,WNW,285,0.0,6.0,45,0.00,,,0.00,0,Wunderground v.1.15,2013-01-04 23:12:00,
2013-01-04 18:17:00,43.7,23.2,30.28,West,265,2.0,6.0,44,0.00,,,0.00,0,Wunderground v.1.15,2013-01-04 23:17:00,
2013-01-04 18:22:00,43.8,23.3,30.28,West,261,4.0,8.0,44,0.00,,,0.00,0,Wunderground v.1.15,2013-01-04 23:22:00,
2013-01-04 18:27:00,43.9,23.4,30.27,SW,223,4.0,8.0,44,0.00,,,0.00,0,Wunderground v.1.15,2013-01-04 23:27:00,
2013-01-04 18:32:00,43.7,23.2,30.28,WNW,299,3.0,4.0,44,0.00,,,0.00,0,Wunderground v.1.15,2013-01-04 23:32:00,
2013-01-04 18:37:00,43.7,23.2,30.28,WNW,295,2.0,9.0,44,0.00,,,0.00,0,Wunderground v.1.15,2013-01-04 23:37:00,
2013-01-04 18:42:00,43.6,23.6,30.29,WSW,249,0.0,3.0,45,0.00,,,0.00,0,Wunderground v.1.15,2013-01-04 23:42:00,
2013-01-04 18:47:00,43.4,23.4,30.28,WNW,292,2.0,6.0,45,0.00,,,0.00,0,Wunderground v.1.15,2013-01-04 23:47:00,
2013-01-04 18:52:00,43.3,23.4,30.29,WNW,294,1.0,5.0,45,0.00,,,0.00,0,Wunderground v.1.15,2013-01-04 23:52:00,
2013-01-04 18:57:00,43.1,23.7,30.29,WSW,254,3.0,6.0,46,0.00,,,0.00,0,Wunderground v.1.15,2013-01-04 23:57:00,
2013-01-04 19:02:00,42.9,23.5,30.30,West,263,3.0,6.0,46,0.00,,,0.00,0,Wunderground v.1.15,2013-01-05 00:02:00,
2013-01-04 19:07:00,42.5,23.7,30.30,NW,325,0.0,6.0,47,0.00,,,0.00,0,Wunderground v.1.15,2013-01-05 00:07:00,
2013-01-04 19:12:00,42.1,23.8,30.30,NW,319,3.0,3.0,48,0.00,,,0.00,0,Wunderground v.1.15,2013-01-05 00:12:00,
2013-01-04 19:17:00,41.8,23.5,30.31,WNW,293,0.0,7.0,48,0.00,,,0.00,0,Wunderground v.1.15,2013-01-05 00:17:00,
2013-01-04 19:22:00,41.5,23.7,30.31,WSW,257,5.0,5.0,49,0.00,,,0.00,0,Wunderground v.1.15,2013-01-05 00:22:00,
2013-01-04 19:27:00,41.6,22.8,30.32,West,271,1.0,5.0,47,0.00,,,0.00,0,Wunderground v.1.15,2013-01-05 00:27:00,
2013-01-04 19:32:00,41.6,23.3,30.32,NW,313,3.0,4.0,48,0.00,,,0.00,0,Wunderground v.1.15,2013-01-05 00:32:00,
2013-01-04 19:37:00,41.6,23.3,30.32,NW,325,4.0,11.0,48,0.00,,,0.00,0,Wunderground v.1.15,2013-01-05 00:37:00,
2013-01-04 19:42:00,41.7,23.4,30.32,West,281,0.0,5.0,48,0.00,,,0.00,0,Wunderground v.1.15,2013-01-05 00:42:00,
2013-01-04 19:47:00,41.6,23.8,30.32,West,278,1.0,5.0,49,0.00,,,0.00,0,Wunderground v.1.15,2013-01-05 00:47:00,
2013-01-04 19:52:00,41.7,23.4,30.33,West,279,1.0,4.0,48,0.00,,,0.00,0,Wunderground v.1.15,2013-01-05 00:52:00,
2013-01-04 19:57:00,41.7,23.4,30.32,WNW,286,1.0,4.0,48,0.00,,,0.00,0,Wunderground v.1.15,2013-01-05 00:57:00,
2013-01-04 20:03:00,41.5,23.7,30.33,WSW,250,5.0,8.0,49,0.00,,,0.00,0,Wunderground v.1.15,2013-01-05 01:03:00,
2013-01-04 20:08:00,41.6,23.3,30.33,NNW,337,0.0,9.0,48,0.00,,,0.00,0,Wunderground v.1.15,2013-01-05 01:08:00,
2013-01-04 20:13:00,41.5,23.2,30.34,West,263,2.0,4.0,48,0.00,,,0.00,0,Wunderground v.1.15,2013-01-05 01:13:00,
2013-01-04 20:18:00,41.1,23.4,30.34,West,277,3.0,5.0,49,0.00,,,0.00,0,Wunderground v.1.15,2013-01-05 01:18:00,
2013-01-04 20:23:00,40.8,23.1,30.34,West,270,6.0,6.0,49,0.00,,,0.00,0,Wunderground v.1.15,2013-01-05 01:23:00,
2013-01-04 20:28:00,40.5,23.3,30.34,SSW,207,2.0,8.0,50,0.00,,,0.00,0,Wunderground v.1.15,2013-01-05 01:28:00,
2013-01-04 20:33:00,40.3,23.1,30.35,WNW,298,3.0,9.0,50,0.00,,,0.00,0,Wunderground v.1.15,2013-01-05 01:33:00,
2013-01-04 20:38:00,40.0,22.8,30.34,SW,227,2.0,9.0,50,0.00,,,0.00,0,Wunderground v.1.15,2013-01-05 01:38:00,
2013-01-04 20:43:00,39.9,22.7,30.35,WSW,249,4.0,12.0,50,0.00,,,0.00,0,Wunderground v.1.15,2013-01-05 01:43:00,
2013-01-04 20:48:00,39.7,22.6,30.35,WNW,283,3.0,13.0,50,0.00,,,0.00,0,Wunderground v.1.15,2013-01-05 01:48:00,
2013-01-04 20:53:00,39.6,22.5,30.35,SW,232,5.0,7.0,50,0.00,,,0.00,0,Wunderground v.1.15,2013-01-05 01:53:00,
2013-01-04 20:58:00,39.3,22.7,30.35,WNW,301,8.0,10.0,51,0.00,,,0.00,0,Wunderground v.1.15,2013-01-05 01:58:00,
2013-01-04 21:03:00,39.1,22.5,30.35,WNW,302,3.0,10.0,51,0.00,,,0.00,0,Wunderground v.1.15,2013-01-05 02:03:00,
2013-01-04 21:08:00,38.9,22.3,30.35,SW,224,1.0,10.0,51,0.00,,,0.00,0,Wunderground v.1.15,2013-01-05 02:08:00,
2013-01-04 21:13:00,38.8,22.2,30.34,WSW,248,4.0,14.0,51,0.00,,,0.00,0,Wunderground v.1.15,2013-01-05 02:13:00,
2013-01-04 21:18:00,38.5,22.4,30.34,NNW,329,1.0,14.0,52,0.00,,,0.00,0,Wunderground v.1.15,2013-01-05 02:18:00,
2013-01-04 21:23:00,38.3,22.2,30.34,West,261,3.0,7.0,52,0.00,,,0.00,0,Wunderground v.1.15,2013-01-05 02:23:00,
2013-01-04 21:28:00,38.1,22.5,30.34,West,261,5.0,8.0,53,0.00,,,0.00,0,Wunderground v.1.15,2013-01-05 02:28:00,
2013-01-04 21:33:00,37.8,22.6,30.35,West,267,7.0,7.0,54,0.00,,,0.00,0,Wunderground v.1.15,2013-01-05 02:33:00,
2013-01-04 21:38:00,37.7,22.5,30.34,SW,221,2.0,9.0,54,0.00,,,0.00,0,Wunderground v.1.15,2013-01-05 02:38:00,
2013-01-04 21:43:00,37.5,22.3,30.33,WSW,256,4.0,8.0,54,0.00,,,0.00,0,Wunderground v.1.15,2013-01-05 02:43:00,
2013-01-04 21:48:00,37.3,22.6,30.33,West,273,3.0,8.0,55,0.00,,,0.00,0,Wunderground v.1.15,2013-01-05 02:48:00,
2013-01-04 21:53:00,37.1,22.4,30.34,SSW,196,2.0,6.0,55,0.00,,,0.00,0,Wunderground v.1.15,2013-01-05 02:53:00,
2013-01-04 21:58:00,36.8,22.6,30.34,SW,217,2.0,6.0,56,0.00,,,0.00,0,Wunderground v.1.15,2013-01-05 02:58:00,
2013-01-04 22:03:00,36.6,22.8,30.34,West,279,3.0,8.0,57,0.00,,,0.00,0,Wunderground v.1.15,2013-01-05 03:03:00,
2013-01-04 22:08:00,36.2,22.8,30.34,WSW,258,2.0,8.0,58,0.00,,,0.00,0,Wunderground v.1.15,2013-01-05 03:08:00,
2013-01-04 22:13:00,35.9,22.5,30.34,WSW,251,1.0,4.0,58,0.00,,,0.00,0,Wunderground v.1.15,2013-01-05 03:13:00,
2013-01-04 22:18:00,35.9,22.5,30.34,SW,232,1.0,6.0,58,0.00,,,0.00,0,Wunderground v.1.15,2013-01-05 03:18:00,
2013-01-04 22:23:00,35.6,22.7,30.34,West,277,0.0,3.0,59,0.00,,,0.00,0,Wunderground v.1.15,2013-01-05 03:23:00,
2013-01-04 22:28:00,35.5,22.6,30.34,SW,234,0.0,3.0,59,0.00,,,0.00,0,Wunderground v.1.15,2013-01-05 03:28:00,
2013-01-04 22:34:00,35.3,22.8,30.34,WSW,244,0.0,3.0,60,0.00,,,0.00,0,Wunderground v.1.15,2013-01-05 03:34:00,
2013-01-04 22:39:00,35.0,22.5,30.34,SW,222,1.0,4.0,60,0.00,,,0.00,0,Wunderground v.1.15,2013-01-05 03:39:00,
2013-01-04 22:44:00,34.7,22.6,30.34,WNW,289,0.0,3.0,61,0.00,,,0.00,0,Wunderground v.1.15,2013-01-05 03:44:00,
2013-01-04 22:49:00,34.3,22.2,30.34,West,267,2.0,6.0,61,0.00,,,0.00,0,Wunderground v.1.15,2013-01-05 03:49:00,
2013-01-04 22:54:00,34.4,22.7,30.34,WNW,286,0.0,4.0,62,0.00,,,0.00,0,Wunderground v.1.15,2013-01-05 03:54:00,
2013-01-04 22:59:00,34.6,22.5,30.34,WNW,289,0.0,5.0,61,0.00,,,0.00,0,Wunderground v.1.15,2013-01-05 03:59:00,
2013-01-04 23:04:00,34.0,22.3,30.34,West,261,3.0,3.0,62,0.00,,,0.00,0,Wunderground v.1.15,2013-01-05 04:04:00,
2013-01-04 23:09:00,33.7,22.4,30.34,WSW,249,1.0,3.0,63,0.00,,,0.00,0,Wunderground v.1.15,2013-01-05 04:09:00,
2013-01-04 23:14:00,33.8,22.5,30.34,WSW,249,0.0,2.0,63,0.00,,,0.00,0,Wunderground v.1.15,2013-01-05 04:14:00,
2013-01-04 23:19:00,33.6,22.7,30.34,WSW,250,0.0,3.0,64,0.00,,,0.00,0,Wunderground v.1.15,2013-01-05 04:19:00,
2013-01-04 23:24:00,33.5,22.6,30.34,WSW,252,0.0,2.0,64,0.00,,,0.00,0,Wunderground v.1.15,2013-01-05 04:24:00,
2013-01-04 23:29:00,33.4,22.5,30.34,WNW,292,1.0,3.0,64,0.00,,,0.00,0,Wunderground v.1.15,2013-01-05 04:29:00,
2013-01-04 23:34:00,33.0,22.5,30.34,WNW,289,0.0,6.0,65,0.00,,,0.00,0,Wunderground v.1.15,2013-01-05 04:34:00,
2013-01-04 23:39:00,33.1,22.6,30.34,WNW,289,0.0,6.0,65,0.00,,,0.00,0,Wunderground v.1.15,2013-01-05 04:39:00,
2013-01-04 23:44:00,33.1,23.0,30.34,WSW,251,2.0,3.0,66,0.00,,,0.00,0,Wunderground v.1.15,2013-01-05 04:44:00,
2013-01-04 23:49:00,32.8,22.7,30.34,West,261,0.0,3.0,66,0.00,,,0.00,0,Wunderground v.1.15,2013-01-05 04:49:00,
2013-01-04 23:54:00,32.4,22.7,30.34,WNW,284,1.0,3.0,67,0.00,,,0.00,0,Wunderground v.1.15,2013-01-05 04:54:00,
2013-01-04 23:59:00,32.2,22.8,30.34,WSW,245,1.0,6.0,68,0.00,,,0.00,0,Wunderground v.1.15,2013-01-05 04:59:00,